Time,TemperatureF,DewpointF,PressureIn,WindDirection,WindDirectionDegrees,WindSpeedMPH,WindSpeedGustMPH,Humidity,HourlyPrecipIn,Conditions,Clouds,dailyrainin,SoftwareType,DateUTC
2013-10-22 00:13:00,40.0,36.0,29.99,South,183,0.0,-999.0,84,-99.99,,,-99.99,,2013-10-22 05:13:00,
2013-10-22 00:22:00,40.0,36.0,29.98,South,183,0.0,-999.0,86,-99.99,,,-99.99,,2013-10-22 05:22:00,
2013-10-22 00:52:00,41.0,37.0,29.98,South,183,0.0,-999.0,85,-99.99,,,-99.99,,2013-10-22 05:52:00,
2013-10-22 01:12:00,43.0,39.0,29.98,South,183,0.0,-999.0,85,-99.99,,,-99.99,,2013-10-22 06:12:00,
2013-10-22 01:22:00,44.0,39.0,29.98,South,183,0.0,-999.0,81,-99.99,,,-99.99,,2013-10-22 06:22:00,
2013-10-22 01:42:00,45.0,39.0,29.97,South,185,0.0,-999.0,78,-99.99,,,-99.99,,2013-10-22 06:42:00,
2013-10-22 01:53:00,45.0,38.0,29.97,South,185,0.0,-999.0,77,-99.99,,,-99.99,,2013-10-22 06:53:00,
2013-10-22 02:12:00,45.0,38.0,29.97,South,185,0.0,-999.0,76,-99.99,,,-99.99,,2013-10-22 07:12:00,
2013-10-22 02:22:00,45.0,38.0,29.96,South,185,0.0,-999.0,75,-99.99,,,-99.99,,2013-10-22 07:22:00,
2013-10-22 02:52:00,44.0,37.0,29.96,South,185,0.0,-999.0,76,-99.99,,,-99.99,,2013-10-22 07:52:00,
2013-10-22 03:12:00,44.0,37.0,29.95,South,185,0.0,-999.0,77,-99.99,,,-99.99,,2013-10-22 08:12:00,
2013-10-22 03:22:00,44.0,38.0,29.94,South,185,0.0,-999.0,78,-99.99,,,-99.99,,2013-10-22 08:22:00,
2013-10-22 03:42:00,44.0,38.0,29.94,South,184,0.0,-999.0,78,-99.99,,,-99.99,,2013-10-22 08:42:00,
2013-10-22 03:52:00,45.0,38.0,29.93,South,185,0.0,-999.0,77,-99.99,,,-99.99,,2013-10-22 08:52:00,
2013-10-22 04:11:00,44.0,37.0,29.93,South,184,0.0,-999.0,77,-99.99,,,-99.99,,2013-10-22 09:11:00,
2013-10-22 04:21:00,43.0,37.0,29.92,South,184,0.0,-999.0,79,-99.99,,,-99.99,,2013-10-22 09:21:00,
2013-10-22 04:53:00,43.0,38.0,29.91,South,184,0.0,-999.0,81,-99.99,,,-99.99,,2013-10-22 09:53:00,
2013-10-22 05:13:00,43.0,38.0,29.91,South,184,0.0,-999.0,82,-99.99,,,-99.99,,2013-10-22 10:13:00,
2013-10-22 05:23:00,43.0,38.0,29.91,South,184,0.0,-999.0,83,-99.99,,,-99.99,,2013-10-22 10:23:00,
2013-10-22 05:43:00,44.0,39.0,29.91,South,184,0.0,-999.0,84,-99.99,,,-99.99,,2013-10-22 10:43:00,
2013-10-22 05:53:00,44.0,40.0,29.91,South,184,0.0,-999.0,85,-99.99,,,-99.99,,2013-10-22 10:53:00,
2013-10-22 06:12:00,44.0,40.0,29.91,South,184,0.0,-999.0,86,-99.99,,,-99.99,,2013-10-22 11:12:00,
2013-10-22 06:22:00,44.0,40.0,29.91,South,184,0.0,-999.0,87,-99.99,,,-99.99,,2013-10-22 11:22:00,
2013-10-22 06:42:00,44.0,41.0,29.90,South,184,0.0,-999.0,88,-99.99,,,-99.99,,2013-10-22 11:42:00,
2013-10-22 06:52:00,44.0,41.0,29.90,South,184,0.0,-999.0,89,-99.99,,,-99.99,,2013-10-22 11:52:00,
2013-10-22 07:11:00,44.0,41.0,29.90,South,184,0.0,-999.0,89,-99.99,,,-99.99,,2013-10-22 12:11:00,
2013-10-22 07:22:00,44.0,41.0,29.90,South,184,0.0,-999.0,89,-99.99,,,-99.99,,2013-10-22 12:22:00,
2013-10-22 07:42:00,43.0,40.0,29.90,South,184,0.0,-999.0,89,-99.99,,,-99.99,,2013-10-22 12:42:00,
2013-10-22 07:52:00,43.0,40.0,29.89,South,184,0.0,-999.0,88,-99.99,,,-99.99,,2013-10-22 12:52:00,
2013-10-22 08:12:00,43.0,40.0,29.90,South,184,0.0,-999.0,88,-99.99,,,-99.99,,2013-10-22 13:12:00,
2013-10-22 08:21:00,43.0,40.0,29.90,South,184,0.0,-999.0,88,-99.99,,,-99.99,,2013-10-22 13:21:00,
2013-10-22 08:42:00,44.0,41.0,29.90,South,184,0.0,-999.0,89,-99.99,,,-99.99,,2013-10-22 13:42:00,
2013-10-22 08:53:00,46.0,43.0,29.91,South,184,0.0,-999.0,89,-99.99,,,-99.99,,2013-10-22 13:53:00,
2013-10-22 09:11:00,47.0,43.0,29.91,South,184,0.0,-999.0,87,-99.99,,,-99.99,,2013-10-22 14:11:00,
2013-10-22 09:21:00,47.0,43.0,29.92,South,184,0.0,-999.0,86,-99.99,,,-99.99,,2013-10-22 14:21:00,
2013-10-22 09:42:00,50.0,45.0,29.91,South,184,0.0,-999.0,84,-99.99,,,-99.99,,2013-10-22 14:42:00,
2013-10-22 09:52:00,51.0,45.0,29.91,South,184,0.0,-999.0,81,-99.99,,,-99.99,,2013-10-22 14:52:00,
2013-10-22 10:12:00,53.0,47.0,29.91,SSW,202,0.0,-999.0,79,-99.99,,,-99.99,,2013-10-22 15:12:00,
2013-10-22 10:22:00,54.0,47.0,29.91,NNW,339,0.0,-999.0,76,-99.99,,,-99.99,,2013-10-22 15:22:00,
2013-10-22 10:54:00,55.0,48.0,29.92,SW,217,2.0,-999.0,76,-99.99,,,-99.99,,2013-10-22 15:54:00,
2013-10-22 11:13:00,55.0,47.0,29.92,NNW,347,0.0,-999.0,75,-99.99,,,-99.99,,2013-10-22 16:13:00,
2013-10-22 11:23:00,55.0,47.0,29.92,North,355,1.0,-999.0,74,-99.99,,,-99.99,,2013-10-22 16:23:00,
2013-10-22 11:43:00,55.0,47.0,29.93,NNW,340,0.0,-999.0,75,-99.99,,,-99.99,,2013-10-22 16:43:00,
2013-10-22 11:53:00,55.0,47.0,29.93,West,269,1.0,-999.0,75,-99.99,,,-99.99,,2013-10-22 16:53:00,
2013-10-22 12:12:00,56.0,48.0,29.93,NW,315,1.0,-999.0,74,-99.99,,,-99.99,,2013-10-22 17:12:00,
2013-10-22 12:22:00,59.0,48.0,29.93,ESE,110,1.0,-999.0,66,-99.99,,,-99.99,,2013-10-22 17:22:00,
2013-10-22 12:43:00,57.0,47.0,29.94,North,360,1.0,-999.0,69,-99.99,,,-99.99,,2013-10-22 17:43:00,
2013-10-22 12:52:00,58.0,47.0,29.94,East,96,2.0,-999.0,67,-99.99,,,-99.99,,2013-10-22 17:52:00,
2013-10-22 13:12:00,60.0,47.0,29.95,North,5,0.0,-999.0,62,-99.99,,,-99.99,,2013-10-22 18:12:00,
2013-10-22 13:22:00,59.0,45.0,29.94,NE,36,2.0,-999.0,60,-99.99,,,-99.99,,2013-10-22 18:22:00,
2013-10-22 13:42:00,59.0,45.0,29.95,North,360,1.0,-999.0,59,-99.99,,,-99.99,,2013-10-22 18:42:00,
2013-10-22 13:52:00,60.0,45.0,29.94,NNW,338,1.0,-999.0,57,-99.99,,,-99.99,,2013-10-22 18:52:00,
2013-10-22 14:12:00,59.0,43.0,29.94,NE,41,1.0,-999.0,56,-99.99,,,-99.99,,2013-10-22 19:12:00,
2013-10-22 14:22:00,59.0,43.0,29.95,East,90,1.0,-999.0,55,-99.99,,,-99.99,,2013-10-22 19:22:00,
2013-10-22 14:42:00,60.0,42.0,29.95,East,79,2.0,-999.0,52,-99.99,,,-99.99,,2013-10-22 19:42:00,
2013-10-22 14:52:00,59.0,42.0,29.95,NNE,30,2.0,-999.0,54,-99.99,,,-99.99,,2013-10-22 19:52:00,
2013-10-22 15:11:00,59.0,42.0,29.96,NNW,344,1.0,-999.0,53,-99.99,,,-99.99,,2013-10-22 20:11:00,
2013-10-22 15:22:00,59.0,45.0,29.96,North,5,1.0,-999.0,59,-99.99,,,-99.99,,2013-10-22 20:22:00,
2013-10-22 15:43:00,59.0,42.0,29.96,ENE,73,0.0,-999.0,54,-99.99,,,-99.99,,2013-10-22 20:43:00,
2013-10-22 15:52:00,60.0,44.0,29.97,West,263,1.0,-999.0,55,-99.99,,,-99.99,,2013-10-22 20:52:00,
2013-10-22 16:12:00,58.0,43.0,29.97,NNE,21,1.0,-999.0,58,-99.99,,,-99.99,,2013-10-22 21:12:00,
2013-10-22 16:23:00,58.0,41.0,29.98,NE,49,1.0,-999.0,53,-99.99,,,-99.99,,2013-10-22 21:23:00,
2013-10-22 16:44:00,59.0,41.0,29.98,North,355,2.0,-999.0,51,-99.99,,,-99.99,,2013-10-22 21:44:00,
2013-10-22 16:54:00,56.0,40.0,29.99,North,360,1.0,-999.0,54,-99.99,,,-99.99,,2013-10-22 21:54:00,
2013-10-22 17:14:00,54.0,40.0,30.00,North,350,0.0,-999.0,58,-99.99,,,-99.99,,2013-10-22 22:14:00,
2013-10-22 17:24:00,54.0,40.0,30.00,East,84,1.0,-999.0,59,-99.99,,,-99.99,,2013-10-22 22:24:00,
2013-10-22 17:44:00,54.0,40.0,30.01,NW,325,0.0,-999.0,58,-99.99,,,-99.99,,2013-10-22 22:44:00,
2013-10-22 17:54:00,53.0,39.0,30.01,North,350,1.0,-999.0,59,-99.99,,,-99.99,,2013-10-22 22:54:00,
2013-10-22 18:12:00,54.0,39.0,30.01,NNW,328,0.0,-999.0,56,-99.99,,,-99.99,,2013-10-22 23:12:00,
2013-10-22 18:23:00,52.0,38.0,30.02,ESE,119,1.0,-999.0,58,-99.99,,,-99.99,,2013-10-22 23:23:00,
2013-10-22 18:43:00,50.0,37.0,30.03,NW,315,0.0,-999.0,61,-99.99,,,-99.99,,2013-10-22 23:43:00,
2013-10-22 18:53:00,49.0,37.0,30.03,NW,323,0.0,-999.0,64,-99.99,,,-99.99,,2013-10-22 23:53:00,
2013-10-22 19:11:00,48.0,38.0,30.04,NW,323,0.0,-999.0,67,-99.99,,,-99.99,,2013-10-23 00:11:00,
2013-10-22 19:22:00,48.0,38.0,30.05,NW,326,0.0,-999.0,67,-99.99,,,-99.99,,2013-10-23 00:22:00,
2013-10-22 19:42:00,47.0,37.0,30.06,NW,324,0.0,-999.0,69,-99.99,,,-99.99,,2013-10-23 00:42:00,
2013-10-22 19:52:00,47.0,38.0,30.06,NNW,347,1.0,-999.0,70,-99.99,,,-99.99,,2013-10-23 00:52:00,
2013-10-22 20:11:00,46.0,37.0,30.07,NNW,347,0.0,-999.0,71,-99.99,,,-99.99,,2013-10-23 01:11:00,
2013-10-22 20:23:00,46.0,37.0,30.07,NNW,347,0.0,-999.0,71,-99.99,,,-99.99,,2013-10-23 01:23:00,
2013-10-22 20:42:00,45.0,37.0,30.07,NNW,347,0.0,-999.0,72,-99.99,,,-99.99,,2013-10-23 01:42:00,
2013-10-22 20:52:00,44.0,36.0,30.08,NNW,347,0.0,-999.0,74,-99.99,,,-99.99,,2013-10-23 01:52:00,
2013-10-22 21:11:00,43.0,36.0,30.08,NNW,347,0.0,-999.0,75,-99.99,,,-99.99,,2013-10-23 02:11:00,
2013-10-22 21:22:00,42.0,35.0,30.09,NNW,347,0.0,-999.0,76,-99.99,,,-99.99,,2013-10-23 02:22:00,
2013-10-22 21:42:00,41.0,34.0,30.10,NNW,347,0.0,-999.0,77,-99.99,,,-99.99,,2013-10-23 02:42:00,
2013-10-22 21:53:00,41.0,35.0,30.10,NNW,347,0.0,-999.0,78,-99.99,,,-99.99,,2013-10-23 02:53:00,
2013-10-22 22:12:00,40.0,34.0,30.10,NNW,347,0.0,-999.0,79,-99.99,,,-99.99,,2013-10-23 03:12:00,
2013-10-22 22:22:00,39.0,34.0,30.11,NNW,347,0.0,-999.0,81,-99.99,,,-99.99,,2013-10-23 03:22:00,
2013-10-22 22:44:00,39.0,34.0,30.11,NNW,347,0.0,-999.0,82,-99.99,,,-99.99,,2013-10-23 03:44:00,
2013-10-22 22:55:00,38.0,33.0,30.11,NNW,347,0.0,-999.0,82,-99.99,,,-99.99,,2013-10-23 03:55:00,
2013-10-22 23:14:00,38.0,33.0,30.11,NNW,347,0.0,-999.0,82,-99.99,,,-99.99,,2013-10-23 04:14:00,
2013-10-22 23:24:00,37.0,32.0,30.11,NNW,347,0.0,-999.0,83,-99.99,,,-99.99,,2013-10-23 04:24:00,
2013-10-22 23:45:00,36.0,32.0,30.12,NNW,347,0.0,-999.0,84,-99.99,,,-99.99,,2013-10-23 04:45:00,
2013-10-22 23:54:00,35.0,31.0,30.12,NNW,347,0.0,-999.0,85,-99.99,,,-99.99,,2013-10-23 04:54:00,